createdAt,value
2023-01-09T00:04:45.380Z,9.60
2023-01-09T00:09:44.311Z,9.60
2023-01-09T00:14:43.312Z,9.60
2023-01-09T00:19:42.457Z,9.60
2023-01-09T00:24:41.288Z,9.50
2023-01-09T00:29:41.570Z,9.50
2023-01-09T00:34:40.382Z,9.30
2023-01-09T00:39:39.539Z,9.20
2023-01-09T00:44:39.198Z,9.10
2023-01-09T00:49:38.364Z,9.10
2023-01-09T00:54:37.365Z,9.00
2023-01-09T00:59:36.400Z,9.00
2023-01-09T01:04:53.529Z,9.00
2023-01-09T01:09:52.493Z,9.00
2023-01-09T01:14:51.417Z,8.90
2023-01-09T01:19:50.489Z,9.00
2023-01-09T01:24:49.429Z,8.90
2023-01-09T01:29:48.494Z,8.90
2023-01-09T01:34:47.908Z,8.80
2023-01-09T01:39:47.702Z,8.80
2023-01-09T01:44:46.524Z,8.80
2023-01-09T01:49:45.301Z,8.80
2023-01-09T01:54:44.322Z,8.90
2023-01-09T01:59:45.060Z,8.90
2023-01-09T02:04:44.614Z,9.00
2023-01-09T02:09:44.713Z,9.00
2023-01-09T02:14:43.454Z,9.10
2023-01-09T02:19:42.500Z,9.10
2023-01-09T02:24:41.513Z,9.10
2023-01-09T02:29:40.459Z,9.20
2023-01-09T02:34:39.522Z,9.20
2023-01-09T02:39:38.482Z,9.20
2023-01-09T02:44:37.504Z,9.20
2023-01-09T02:49:36.522Z,9.30
2023-01-09T02:54:35.528Z,9.30
2023-01-09T02:59:34.331Z,9.30
2023-01-09T03:04:33.550Z,9.20
2023-01-09T03:09:32.586Z,9.20
2023-01-09T03:14:31.615Z,9.20
2023-01-09T03:19:30.573Z,9.20
2023-01-09T03:24:29.618Z,9.10
2023-01-09T03:29:29.544Z,9.10
2023-01-09T03:34:28.639Z,9.10
2023-01-09T03:39:27.691Z,9.10
2023-01-09T03:44:26.497Z,9.10
2023-01-09T03:49:25.463Z,9.00
2023-01-09T03:54:24.584Z,8.90
2023-01-09T03:59:25.399Z,8.90
2023-01-09T04:04:24.550Z,8.90
2023-01-09T04:09:23.667Z,8.90
2023-01-09T04:14:22.507Z,8.70
2023-01-09T04:19:21.613Z,8.60
2023-01-09T04:24:20.599Z,8.50
2023-01-09T04:29:19.608Z,8.40
2023-01-09T04:34:18.623Z,8.30
2023-01-09T04:39:17.629Z,8.20
2023-01-09T04:44:16.652Z,8.20
2023-01-09T04:49:15.657Z,8.10
2023-01-09T04:54:14.472Z,8.00
2023-01-09T04:59:13.690Z,7.90
2023-01-09T05:04:13.605Z,7.90
2023-01-09T05:09:12.524Z,7.80
2023-01-09T05:14:12.501Z,7.80
2023-01-09T05:19:11.884Z,7.90
2023-01-09T05:24:10.401Z,8.00
2023-01-09T05:29:09.591Z,8.10
2023-01-09T05:34:08.591Z,8.20
2023-01-09T05:39:07.669Z,8.20
2023-01-09T05:44:06.503Z,8.30
2023-01-09T05:49:05.469Z,8.30
2023-01-09T05:54:06.524Z,8.30
2023-01-09T05:59:05.720Z,8.40
2023-01-09T06:04:04.720Z,8.40
2023-01-09T06:09:03.765Z,8.40
2023-01-09T06:14:02.752Z,8.40
2023-01-09T06:19:01.547Z,8.40
2023-01-09T06:24:00.615Z,8.40
2023-01-09T06:29:00.466Z,8.40
2023-01-09T06:33:59.618Z,8.40
2023-01-09T06:38:58.841Z,8.50
2023-01-09T06:43:57.631Z,8.50
2023-01-09T06:48:56.531Z,8.50
2023-01-09T06:53:55.667Z,8.50
2023-01-09T06:58:55.244Z,8.60
2023-01-09T07:03:54.751Z,8.60
2023-01-09T07:08:53.724Z,8.60
2023-01-09T07:13:52.710Z,8.70
2023-01-09T07:18:52.245Z,8.70
2023-01-09T07:23:51.564Z,8.70
2023-01-09T07:28:50.588Z,8.70
2023-01-09T07:33:49.576Z,8.70
2023-01-09T07:38:48.593Z,8.80
2023-01-09T07:43:47.536Z,8.80
2023-01-09T07:48:46.715Z,8.80
2023-01-09T07:53:45.577Z,8.80
2023-01-09T07:58:44.646Z,8.80
2023-01-09T08:03:43.497Z,8.80
2023-01-09T08:08:43.242Z,8.80
2023-01-09T08:13:42.694Z,8.70
2023-01-09T08:18:41.537Z,8.70
2023-01-09T08:23:40.781Z,8.70
2023-01-09T08:28:39.614Z,8.60
2023-01-09T08:33:40.448Z,8.70
2023-01-09T08:38:39.919Z,8.80
2023-01-09T08:43:56.826Z,8.80
2023-01-09T08:48:55.646Z,9.00
2023-01-09T08:53:54.567Z,9.00
2023-01-09T08:58:53.588Z,9.10
2023-01-09T09:03:53.375Z,9.20
2023-01-09T09:08:52.640Z,9.40
2023-01-09T09:13:51.732Z,9.60
2023-01-09T09:18:50.744Z,9.60
2023-01-09T09:23:49.773Z,9.60
2023-01-09T09:28:48.607Z,9.60
2023-01-09T09:33:47.604Z,9.60
2023-01-09T09:38:46.781Z,9.70
2023-01-09T09:44:03.775Z,9.70
2023-01-09T09:49:02.622Z,9.70
2023-01-09T09:54:01.957Z,9.70
2023-01-09T09:59:00.642Z,9.50
2023-01-09T10:03:59.572Z,9.40
2023-01-09T10:09:00.420Z,9.20
2023-01-09T10:14:08.400Z,9.20
2023-01-09T10:19:06.621Z,9.30
2023-01-09T10:24:05.639Z,9.30
2023-01-09T10:29:04.593Z,9.30
2023-01-09T10:34:03.775Z,9.40
2023-01-09T10:39:03.847Z,9.40
2023-01-09T10:44:02.584Z,9.50
2023-01-09T10:49:02.040Z,9.60
2023-01-09T10:54:00.801Z,9.70
2023-01-09T10:58:59.826Z,9.80
2023-01-09T11:04:00.992Z,9.80
2023-01-09T11:08:59.724Z,9.80
2023-01-09T11:13:58.615Z,10.00
2023-01-09T11:18:58.450Z,9.90
2023-01-09T11:23:57.772Z,10.00
2023-01-09T11:28:56.683Z,10.10
2023-01-09T11:33:55.690Z,10.00
2023-01-09T11:38:54.703Z,10.00
2023-01-09T11:43:53.724Z,10.20
2023-01-09T11:48:52.934Z,10.40
2023-01-09T11:53:51.732Z,10.50
2023-01-09T11:58:50.762Z,10.50
2023-01-09T12:03:49.875Z,10.50
2023-01-09T12:08:48.666Z,10.50
2023-01-09T12:13:49.522Z,10.30
2023-01-09T12:18:48.642Z,10.30
2023-01-09T12:23:47.718Z,10.00
2023-01-09T12:28:46.706Z,9.90
2023-01-09T12:33:45.749Z,10.00
2023-01-09T12:38:44.785Z,10.10
2023-01-09T12:43:43.794Z,10.10
2023-01-09T12:48:42.714Z,10.20
2023-01-09T12:53:41.810Z,10.10
2023-01-09T12:58:40.729Z,10.10
2023-01-09T13:03:39.952Z,10.20
2023-01-09T13:08:38.682Z,10.40
2023-01-09T13:13:37.850Z,10.40
2023-01-09T13:18:38.754Z,10.40
2023-01-09T13:23:37.916Z,10.30
2023-01-09T13:28:36.747Z,10.20
2023-01-09T13:33:35.768Z,10.20
2023-01-09T13:38:34.777Z,10.30
2023-01-09T13:43:33.706Z,10.50
2023-01-09T13:48:33.389Z,10.40
2023-01-09T13:53:34.621Z,10.20
2023-01-09T13:58:33.981Z,10.00
2023-01-09T14:03:33.301Z,10.00
2023-01-09T14:08:32.727Z,10.00
2023-01-09T14:13:31.925Z,10.10
2023-01-09T14:18:30.941Z,10.10
2023-01-09T14:23:52.257Z,10.00
2023-01-09T14:28:30.816Z,9.90
2023-01-09T14:33:30.528Z,9.90
2023-01-09T14:38:29.764Z,9.70
2023-01-09T14:43:28.757Z,9.70
2023-01-09T14:48:27.795Z,9.60
2023-01-09T14:53:27.205Z,9.60
2023-01-09T14:58:26.197Z,9.50
2023-01-09T15:03:24.903Z,9.50
2023-01-09T15:08:23.721Z,9.50
2023-01-09T15:13:22.713Z,9.50
2023-01-09T15:18:21.726Z,9.50
2023-01-09T15:23:21.829Z,9.50
2023-01-09T15:28:20.752Z,9.40
2023-01-09T15:33:19.892Z,9.40
2023-01-09T15:38:18.978Z,9.40
2023-01-09T15:43:17.692Z,9.40
2023-01-09T15:48:16.703Z,9.40
2023-01-09T15:53:15.771Z,9.30
2023-01-09T15:58:14.873Z,9.30
2023-01-09T16:03:15.406Z,9.20
2023-01-09T16:08:17.907Z,9.20
2023-01-09T16:13:16.794Z,9.20
2023-01-09T16:18:15.796Z,9.10
2023-01-09T16:23:14.823Z,9.00
2023-01-09T16:28:13.817Z,9.00
2023-01-09T16:33:13.029Z,9.00
2023-01-09T16:38:11.832Z,9.00
2023-01-09T16:43:12.729Z,9.00
2023-01-09T16:48:11.808Z,8.90
2023-01-09T16:53:10.915Z,9.00
2023-01-09T16:58:09.882Z,8.80
2023-01-09T17:03:08.956Z,8.70
2023-01-09T17:08:07.732Z,8.50
2023-01-09T17:13:06.964Z,8.50
2023-01-09T17:18:06.454Z,8.40
2023-01-09T17:23:06.110Z,8.40
2023-01-09T17:28:23.157Z,8.40
2023-01-09T17:33:21.848Z,8.40
2023-01-09T17:38:21.165Z,8.40
2023-01-09T17:43:19.932Z,8.40
2023-01-09T17:48:18.925Z,8.50
2023-01-09T17:53:22.214Z,8.50
2023-01-09T17:58:20.819Z,8.50
2023-01-09T18:03:20.271Z,8.60
2023-01-09T18:08:18.825Z,8.60
2023-01-09T18:13:17.868Z,8.60
2023-01-09T18:18:17.063Z,8.60
2023-01-09T18:23:16.384Z,8.60
2023-01-09T18:28:15.391Z,8.70
2023-01-09T18:33:14.101Z,8.70
2023-01-09T18:38:13.265Z,8.60
2023-01-09T18:43:11.923Z,8.70
2023-01-09T18:48:10.918Z,8.70
2023-01-09T18:53:09.833Z,8.70
2023-01-09T18:58:08.943Z,8.70
2023-01-09T19:03:07.861Z,8.70
2023-01-09T19:08:06.964Z,8.70
2023-01-09T19:13:05.984Z,8.70
2023-01-09T19:18:05.024Z,8.70
2023-01-09T19:23:04.028Z,8.60
2023-01-09T19:28:03.582Z,8.60
2023-01-09T19:33:03.071Z,8.60
2023-01-09T19:38:01.817Z,8.70
2023-01-09T19:43:01.082Z,8.60
2023-01-09T19:48:00.214Z,8.60
2023-01-09T19:52:59.095Z,8.50
2023-01-09T19:57:57.983Z,8.40
2023-01-09T20:02:57.592Z,8.30
2023-01-09T20:07:57.064Z,8.40
2023-01-09T20:12:55.972Z,8.40
2023-01-09T20:17:55.034Z,8.40
2023-01-09T20:22:53.969Z,8.40
2023-01-09T20:27:53.089Z,8.40
2023-01-09T20:32:53.492Z,8.40
2023-01-09T20:37:53.173Z,8.40
2023-01-09T20:42:52.181Z,8.50
2023-01-09T20:47:51.165Z,8.50
2023-01-09T20:52:51.408Z,8.50
2023-01-09T20:57:50.048Z,8.40
2023-01-09T21:02:48.958Z,8.40
2023-01-09T21:07:48.049Z,8.40
2023-01-09T21:12:46.889Z,8.40
2023-01-09T21:17:46.184Z,8.40
2023-01-09T21:22:44.984Z,8.30
2023-01-09T21:27:45.532Z,8.30
2023-01-09T21:32:45.056Z,8.30
2023-01-09T21:37:44.061Z,8.40
2023-01-09T21:43:01.164Z,8.40
2023-01-09T21:48:00.193Z,8.40
2023-01-09T21:52:59.220Z,8.40
2023-01-09T21:57:58.182Z,8.40
2023-01-09T22:02:57.489Z,8.40
2023-01-09T22:07:56.196Z,8.40
2023-01-09T22:13:15.039Z,8.40
2023-01-09T22:18:14.327Z,8.40
2023-01-09T22:23:12.967Z,8.40
2023-01-09T22:28:12.164Z,8.40
2023-01-09T22:33:11.126Z,8.40
2023-01-09T22:38:10.691Z,8.40
2023-01-09T22:43:12.403Z,8.40
2023-01-09T22:48:11.010Z,8.40
2023-01-09T22:53:11.094Z,8.40
2023-01-09T22:58:10.122Z,8.40
2023-01-09T23:03:09.028Z,8.40
2023-01-09T23:08:08.025Z,8.40
2023-01-09T23:13:07.065Z,8.40
2023-01-09T23:18:07.441Z,8.30
2023-01-09T23:23:06.793Z,8.30
2023-01-09T23:28:06.210Z,8.30
2023-01-09T23:33:05.165Z,8.40
2023-01-09T23:38:04.138Z,8.40
2023-01-09T23:43:08.962Z,8.40
2023-01-09T23:48:08.214Z,8.30
2023-01-09T23:53:07.132Z,8.30
2023-01-09T23:58:06.150Z,8.20
